Time;durP1;ratioP1;P1;durP2;ratioP2;P2;SDS_P1;SDS_P2;PMS_P1;PMS_P2;Temp;Humidity;BMP_temperature;BMP_pressure;BME280_temperature;BME280_humidity;BME280_pressure;Samples;Min_cycle;Max_cycle;Signal;HPM_P1;HPM_P2
2024/02/23 07:12:28;;;;;;;2.90;1.00;;;;;;;;;;4862976;29;20131;-92
2024/02/23 07:16:22;;;;;;;1.00;0.70;;;;;;;;;;4860912;29;20048;-91
2024/02/23 07:20:06;;;;;;;1.73;0.90;;;;;;;;;;4822731;29;20129;-91
2024/02/23 07:31:58;;;;;;;1.10;1.00;;;;;;;;;;4768689;30;20030;-91
2024/02/23 07:43:37;;;;;;;2.43;1.30;;;;;;;;;;4768541;30;20031;-90
2024/02/23 07:46:09;;;;;;;1.83;0.87;;;;;;;;;;4776965;29;20055;-90
2024/02/23 07:48:36;;;;;;;0.60;0.53;;;;;;;;;;4803708;29;20552;-91
2024/02/23 07:51:05;;;;;;;1.13;0.80;;;;;;;;;;4804556;29;20432;-91
2024/02/23 07:53:32;;;;;;;1.43;0.90;;;;;;;;;;4789200;29;20086;-90
2024/02/23 07:56:01;;;;;;;3.13;2.10;;;;;;;;;;4797191;29;20051;-91
2024/02/23 07:58:29;;;;;;;3.00;2.00;;;;;;;;;;4805072;29;20122;-91
2024/02/23 08:00:56;;;;;;;3.30;2.60;;;;;;;;;;4845124;29;20136;-91
2024/02/23 08:03:23;;;;;;;3.30;1.47;;;;;;;;;;4863860;29;20052;-91
2024/02/23 08:05:50;;;;;;;1.50;0.90;;;;;;;;;;4863547;29;20499;-89
2024/02/23 08:08:18;;;;;;;1.47;0.80;;;;;;;;;;4863456;29;20076;-91
2024/02/23 08:10:45;;;;;;;1.93;0.83;;;;;;;;;;4880551;29;20072;-89
2024/02/23 08:13:13;;;;;;;4.57;2.70;;;;;;;;;;4863559;29;20080;-89
2024/02/23 08:15:41;;;;;;;11.53;5.23;;;;;;;;;;4863639;29;20045;-89
2024/02/23 08:18:08;;;;;;;4.27;2.67;;;;;;;;;;4848593;29;20045;-89
2024/02/23 08:20:35;;;;;;;2.40;0.90;;;;;;;;;;4863658;29;20491;-90
2024/02/23 08:23:02;;;;;;;1.40;0.87;;;;;;;;;;4863540;29;20407;-89
2024/02/23 08:25:29;;;;;;;1.07;1.00;;;;;;;;;;4880044;29;20053;-89
2024/02/23 08:27:57;;;;;;;0.70;0.67;;;;;;;;;;4863674;29;20410;-89
2024/02/23 08:30:24;;;;;;;6.93;4.72;;;;;;;;;;4863431;29;20056;-89
2024/02/23 08:32:51;;;;;;;6.20;3.72;;;;;;;;;;4863381;29;20056;-90
2024/02/23 08:35:18;;;;;;;3.13;2.60;;;;;;;;;;4862548;29;20041;-90
2024/02/23 08:37:45;;;;;;;1.55;0.70;;;;;;;;;;4863282;29;20049;-89
2024/02/23 08:40:14;;;;;;;1.27;0.60;;;;;;;;;;4863110;29;20268;-88
2024/02/23 08:42:42;;;;;;;2.05;0.75;;;;;;;;;;4862955;29;20044;-88
2024/02/23 08:45:13;;;;;;;1.67;0.80;;;;;;;;;;4863678;29;20127;-89
2024/02/23 08:47:41;;;;;;;1.98;0.75;;;;;;;;;;4864536;29;20301;-89
2024/02/23 08:50:09;;;;;;;2.78;0.77;;;;;;;;;;4885361;29;20037;-91
2024/02/23 08:52:36;;;;;;;1.35;1.00;;;;;;;;;;4847733;29;20041;-89
2024/02/23 08:55:03;;;;;;;1.85;0.60;;;;;;;;;;4863132;29;20148;-91
2024/02/23 08:57:30;;;;;;;1.95;0.70;;;;;;;;;;4862573;29;20044;-91
2024/02/23 08:59:57;;;;;;;1.45;1.13;;;;;;;;;;4862562;29;20053;-89
2024/02/23 09:02:25;;;;;;;0.80;0.57;;;;;;;;;;4862723;29;20131;-90
2024/02/23 09:04:52;;;;;;;0.93;0.63;;;;;;;;;;4862592;29;20052;-89
2024/02/23 09:07:20;;;;;;;1.10;1.00;;;;;;;;;;4862730;29;20379;-92
2024/02/23 09:09:48;;;;;;;1.55;0.68;;;;;;;;;;4862398;29;20452;-89
2024/02/23 09:12:16;;;;;;;3.38;2.53;;;;;;;;;;4847622;29;20080;-89
2024/02/23 09:14:43;;;;;;;5.13;3.20;;;;;;;;;;4862989;29;20048;-89
2024/02/23 09:17:11;;;;;;;2.60;1.45;;;;;;;;;;4846438;29;20065;-90
2024/02/23 09:19:38;;;;;;;0.73;0.73;;;;;;;;;;4878205;29;20044;-89
2024/02/23 09:22:05;;;;;;;1.70;0.93;;;;;;;;;;4861900;29;20053;-90
2024/02/23 09:24:32;;;;;;;1.17;0.60;;;;;;;;;;4861624;29;20051;-88
2024/02/23 09:26:59;;;;;;;0.90;0.90;;;;;;;;;;4846926;29;20136;-90
2024/02/23 09:29:27;;;;;;;0.90;0.70;;;;;;;;;;4861656;29;20075;-88
2024/02/23 09:31:54;;;;;;;1.10;0.70;;;;;;;;;;4862457;29;20418;-88
2024/02/23 09:34:21;;;;;;;0.85;0.77;;;;;;;;;;4851147;29;20147;-88
2024/02/23 09:36:48;;;;;;;1.30;0.68;;;;;;;;;;4834267;29;20049;-90
2024/02/23 09:39:15;;;;;;;0.40;0.40;;;;;;;;;;4844358;29;20045;-89
2024/02/23 09:41:42;;;;;;;1.02;0.90;;;;;;;;;;4843892;29;20049;-89
2024/02/23 09:44:10;;;;;;;1.38;0.50;;;;;;;;;;4845196;29;20415;-89
2024/02/23 09:46:38;;;;;;;0.50;0.50;;;;;;;;;;4829108;29;20063;-90
2024/02/23 09:49:06;;;;;;;1.52;1.08;;;;;;;;;;4844421;29;20048;-89
2024/02/23 09:51:43;;;;;;;1.23;0.63;;;;;;;;;;4829617;29;20534;-91
2024/02/23 09:54:12;;;;;;;1.13;1.02;;;;;;;;;;4851936;29;20065;-91
2024/02/23 09:56:48;;;;;;;0.95;0.50;;;;;;;;;;4867178;29;20048;-91
2024/02/23 09:59:27;;;;;;;1.05;0.50;;;;;;;;;;4852483;29;20037;-92
2024/02/23 10:01:58;;;;;;;0.52;0.52;;;;;;;;;;4880723;29;20037;-91
2024/02/23 10:04:27;;;;;;;0.60;0.60;;;;;;;;;;4852322;29;20045;-89
2024/02/23 10:06:54;;;;;;;2.58;0.63;;;;;;;;;;4842670;29;20049;-90
2024/02/23 10:09:21;;;;;;;1.75;0.50;;;;;;;;;;4842190;29;20046;-88
2024/02/23 10:11:52;;;;;;;0.98;0.70;;;;;;;;;;4827182;29;20496;-89
2024/02/23 10:14:19;;;;;;;1.00;0.80;;;;;;;;;;4858753;29;20514;-89
2024/02/23 10:16:46;;;;;;;1.45;0.60;;;;;;;;;;4842278;29;20101;-92
2024/02/23 10:19:13;;;;;;;1.17;0.47;;;;;;;;;;4841923;29;20038;-88
2024/02/23 10:21:40;;;;;;;2.17;0.75;;;;;;;;;;4842260;29;20045;-88
2024/02/23 10:24:07;;;;;;;0.95;0.60;;;;;;;;;;4827432;29;20076;-88
2024/02/23 10:26:34;;;;;;;3.15;0.77;;;;;;;;;;4842369;29;20066;-89
2024/02/23 10:29:03;;;;;;;2.17;0.93;;;;;;;;;;4827001;29;20052;-88
2024/02/23 10:31:33;;;;;;;2.05;0.93;;;;;;;;;;4826927;29;20547;-89
2024/02/23 10:34:04;;;;;;;1.52;0.60;;;;;;;;;;4826615;29;20049;-88
2024/02/23 10:36:31;;;;;;;5.75;1.40;;;;;;;;;;4826592;29;20415;-88
2024/02/23 10:38:59;;;;;;;1.85;1.30;;;;;;;;;;4826887;29;20127;-88
2024/02/23 10:41:27;;;;;;;1.95;0.65;;;;;;;;;;4845489;29;20049;-88
2024/02/23 10:43:55;;;;;;;1.20;0.90;;;;;;;;;;4830030;29;20132;-89
2024/02/23 10:46:22;;;;;;;1.55;0.90;;;;;;;;;;4830149;29;20081;-89
2024/02/23 10:48:50;;;;;;;2.63;1.38;;;;;;;;;;4845518;29;20073;-88
2024/02/23 10:51:17;;;;;;;1.23;0.70;;;;;;;;;;4861530;29;20053;-88
2024/02/23 10:53:48;;;;;;;1.88;0.50;;;;;;;;;;4846028;29;20420;-90
2024/02/23 10:56:15;;;;;;;0.50;0.45;;;;;;;;;;4829886;29;20106;-88
2024/02/23 10:58:43;;;;;;;1.70;0.80;;;;;;;;;;4861589;29;20563;-90
2024/02/23 11:01:10;;;;;;;1.42;0.50;;;;;;;;;;4830062;29;20049;-88
2024/02/23 11:03:38;;;;;;;2.47;0.95;;;;;;;;;;4830116;29;20049;-89
2024/02/23 11:06:08;;;;;;;3.05;1.50;;;;;;;;;;4830232;29;20207;-88
2024/02/23 11:08:38;;;;;;;3.75;2.42;;;;;;;;;;4845057;29;20045;-90
2024/02/23 11:11:09;;;;;;;2.03;1.30;;;;;;;;;;4830021;29;20049;-89
2024/02/23 11:13:37;;;;;;;1.77;1.20;;;;;;;;;;4845432;29;20052;-89
2024/02/23 11:16:05;;;;;;;2.17;1.10;;;;;;;;;;4829771;29;20050;-88
2024/02/23 11:18:33;;;;;;;1.45;0.82;;;;;;;;;;4848237;29;20503;-90
2024/02/23 11:21:02;;;;;;;1.42;1.00;;;;;;;;;;4864404;29;20041;-88
2024/02/23 11:23:42;;;;;;;3.70;0.93;;;;;;;;;;4845098;29;20061;-88
2024/02/23 11:26:11;;;;;;;1.30;1.05;;;;;;;;;;4829411;29;20044;-89
2024/02/23 11:28:41;;;;;;;1.25;1.05;;;;;;;;;;4829966;29;20453;-89
2024/02/23 11:31:12;;;;;;;1.83;1.33;;;;;;;;;;4845207;29;20072;-88
2024/02/23 11:33:39;;;;;;;1.67;0.90;;;;;;;;;;4845900;29;20041;-89
2024/02/23 11:36:08;;;;;;;2.67;0.90;;;;;;;;;;4830146;29;20087;-90
2024/02/23 11:38:35;;;;;;;2.83;1.10;;;;;;;;;;4829526;29;20161;-89
2024/02/23 11:41:03;;;;;;;1.55;0.90;;;;;;;;;;4845454;29;20066;-89
2024/02/23 11:43:34;;;;;;;0.60;0.50;;;;;;;;;;4844733;29;20045;-88
2024/02/23 11:46:01;;;;;;;4.05;0.95;;;;;;;;;;4861560;29;20066;-89
2024/02/23 11:48:28;;;;;;;1.10;0.70;;;;;;;;;;4844230;29;20560;-90
2024/02/23 11:50:56;;;;;;;1.80;0.70;;;;;;;;;;4843476;29;20045;-89
2024/02/23 11:53:25;;;;;;;2.75;1.08;;;;;;;;;;4844728;29;20049;-88
2024/02/23 11:55:52;;;;;;;3.58;0.90;;;;;;;;;;4844906;29;20056;-88
2024/02/23 11:58:19;;;;;;;2.15;0.95;;;;;;;;;;4829163;29;20477;-89
2024/02/23 12:00:46;;;;;;;2.42;1.23;;;;;;;;;;4844743;29;20045;-89
2024/02/23 12:03:13;;;;;;;3.13;1.83;;;;;;;;;;4844055;29;20048;-89
2024/02/23 12:05:40;;;;;;;3.30;1.75;;;;;;;;;;4844029;29;20063;-89
2024/02/23 12:08:07;;;;;;;2.08;0.68;;;;;;;;;;4828522;29;20050;-89
2024/02/23 12:10:36;;;;;;;1.02;0.60;;;;;;;;;;4843907;29;20045;-89
2024/02/23 12:13:03;;;;;;;0.93;0.80;;;;;;;;;;4843979;29;20061;-88
2024/02/23 12:15:30;;;;;;;0.95;0.60;;;;;;;;;;4843884;29;20077;-90
2024/02/23 12:18:03;;;;;;;1.13;0.60;;;;;;;;;;4843966;29;20474;-91
2024/02/23 12:20:33;;;;;;;0.77;0.50;;;;;;;;;;4838675;29;20089;-90
2024/02/23 12:23:01;;;;;;;1.60;0.73;;;;;;;;;;4863626;29;20043;-91
2024/02/23 12:25:28;;;;;;;1.13;0.70;;;;;;;;;;4857808;29;20060;-92
2024/02/23 12:27:56;;;;;;;1.83;0.82;;;;;;;;;;4844674;29;20576;-91
2024/02/23 12:30:23;;;;;;;1.50;0.80;;;;;;;;;;4956903;23;20098;-89
2024/02/23 12:32:50;;;;;;;1.73;0.55;;;;;;;;;;4911037;29;20071;-90
2024/02/23 12:35:17;;;;;;;1.17;0.55;;;;;;;;;;4903406;29;20046;-88
2024/02/23 12:37:45;;;;;;;0.88;0.50;;;;;;;;;;4903111;29;20611;-89
2024/02/23 12:40:12;;;;;;;2.47;0.85;;;;;;;;;;4902849;29;20489;-89
2024/02/23 12:42:40;;;;;;;2.30;0.68;;;;;;;;;;4902723;29;20043;-89
2024/02/23 12:45:07;;;;;;;0.52;0.32;;;;;;;;;;4918907;29;20051;-89
2024/02/23 12:47:34;;;;;;;0.88;0.60;;;;;;;;;;4902837;29;20051;-90
2024/02/23 12:50:01;;;;;;;1.67;0.70;;;;;;;;;;4903299;29;20409;-89
2024/02/23 12:52:28;;;;;;;1.42;0.60;;;;;;;;;;4918458;29;20044;-89
2024/02/23 12:54:55;;;;;;;0.95;0.80;;;;;;;;;;4902884;29;20075;-91
2024/02/23 12:57:22;;;;;;;1.55;1.10;;;;;;;;;;4901289;29;20457;-89
2024/02/23 12:59:49;;;;;;;1.20;1.05;;;;;;;;;;4912485;29;20096;-91
2024/02/23 13:02:16;;;;;;;2.38;1.92;;;;;;;;;;4897672;29;20048;-90
2024/02/23 13:04:48;;;;;;;1.05;0.68;;;;;;;;;;4882690;29;20048;-90
2024/02/23 13:07:16;;;;;;;1.90;0.50;;;;;;;;;;4898499;29;20111;-90
2024/02/23 13:09:44;;;;;;;3.42;1.85;;;;;;;;;;4898556;29;20426;-90
2024/02/23 13:12:11;;;;;;;2.00;1.38;;;;;;;;;;4882413;29;20056;-89
2024/02/23 13:14:38;;;;;;;1.38;0.60;;;;;;;;;;4882892;29;20044;-90
2024/02/23 13:17:05;;;;;;;2.33;0.88;;;;;;;;;;4897953;29;20064;-88
2024/02/23 13:19:32;;;;;;;2.00;0.85;;;;;;;;;;4898280;29;20040;-88
2024/02/23 13:22:00;;;;;;;2.03;0.80;;;;;;;;;;4914911;29;20513;-91
2024/02/23 13:24:28;;;;;;;0.68;0.60;;;;;;;;;;4898079;29;20051;-89
2024/02/23 13:26:55;;;;;;;2.28;1.08;;;;;;;;;;4882893;29;20078;-90
2024/02/23 13:29:22;;;;;;;1.65;0.82;;;;;;;;;;4882644;29;20052;-88
2024/02/23 13:31:50;;;;;;;3.17;0.88;;;;;;;;;;4878506;29;20048;-91
2024/02/23 13:34:17;;;;;;;2.25;0.90;;;;;;;;;;4878652;29;20169;-90
2024/02/23 13:36:45;;;;;;;1.83;0.98;;;;;;;;;;4883093;29;20047;-90
2024/02/23 13:39:12;;;;;;;1.05;0.68;;;;;;;;;;4898336;29;20040;-91
2024/02/23 13:41:39;;;;;;;1.38;0.70;;;;;;;;;;4898360;29;20127;-90
2024/02/23 13:44:06;;;;;;;2.10;0.80;;;;;;;;;;4897875;29;20414;-91
2024/02/23 13:46:39;;;;;;;1.65;1.20;;;;;;;;;;4897348;29;20099;-90
2024/02/23 13:49:07;;;;;;;1.98;0.63;;;;;;;;;;4915069;29;20458;-90
2024/02/23 13:51:34;;;;;;;1.95;1.20;;;;;;;;;;4898188;29;20071;-90
2024/02/23 13:54:02;;;;;;;3.20;1.90;;;;;;;;;;4898452;29;20048;-91
2024/02/23 13:56:30;;;;;;;3.92;2.83;;;;;;;;;;4908795;29;20091;-89
2024/02/23 13:58:57;;;;;;;1.70;1.40;;;;;;;;;;4914503;29;20047;-91
2024/02/23 14:01:24;;;;;;;1.83;0.90;;;;;;;;;;4881929;29;20044;-89
2024/02/23 14:03:51;;;;;;;1.83;0.77;;;;;;;;;;4897590;29;20048;-90
2024/02/23 14:06:19;;;;;;;0.77;0.68;;;;;;;;;;4897839;29;20076;-90
2024/02/23 14:08:47;;;;;;;0.70;0.68;;;;;;;;;;4897635;29;20124;-91
2024/02/23 14:11:14;;;;;;;1.25;0.60;;;;;;;;;;4882312;29;20123;-90
2024/02/23 14:13:42;;;;;;;2.05;0.75;;;;;;;;;;4897261;29;20048;-90
2024/02/23 14:16:09;;;;;;;2.65;1.05;;;;;;;;;;4885502;29;20055;-91
2024/02/23 14:18:37;;;;;;;1.65;0.43;;;;;;;;;;4900991;29;20040;-91
2024/02/23 14:21:04;;;;;;;0.95;0.50;;;;;;;;;;4902122;29;20062;-90
2024/02/23 14:23:31;;;;;;;2.00;0.75;;;;;;;;;;4901487;29;20457;-92
2024/02/23 14:25:59;;;;;;;0.80;0.80;;;;;;;;;;4885620;29;20413;-91
2024/02/23 14:28:26;;;;;;;3.03;1.23;;;;;;;;;;4885878;29;20139;-89
2024/02/23 14:30:54;;;;;;;4.60;2.20;;;;;;;;;;4901163;29;20131;-89
2024/02/23 14:33:21;;;;;;;2.67;1.42;;;;;;;;;;4900113;29;20561;-90
2024/02/23 14:35:49;;;;;;;1.23;0.80;;;;;;;;;;4901459;29;20070;-90
2024/02/23 14:38:16;;;;;;;1.27;0.80;;;;;;;;;;4917645;29;20040;-89
2024/02/23 14:40:44;;;;;;;1.27;0.60;;;;;;;;;;4901026;29;20059;-91
2024/02/23 14:43:11;;;;;;;1.98;0.70;;;;;;;;;;4885500;29;20052;-91
2024/02/23 14:45:38;;;;;;;2.90;1.60;;;;;;;;;;4885295;29;20470;-90
2024/02/23 14:48:05;;;;;;;3.03;2.03;;;;;;;;;;4900792;29;20048;-90
2024/02/23 14:50:32;;;;;;;2.03;1.10;;;;;;;;;;4917414;29;20048;-90
2024/02/23 14:53:02;;;;;;;2.33;0.95;;;;;;;;;;4885235;29;20048;-91
2024/02/23 14:55:29;;;;;;;2.20;0.70;;;;;;;;;;4900900;29;20056;-90
2024/02/23 14:57:57;;;;;;;1.80;0.82;;;;;;;;;;4900658;29;20051;-92
2024/02/23 15:00:25;;;;;;;2.10;0.90;;;;;;;;;;4900697;29;20044;-92
2024/02/23 15:02:52;;;;;;;2.15;0.70;;;;;;;;;;4910287;29;20043;-90
2024/02/23 15:05:19;;;;;;;2.83;1.50;;;;;;;;;;4889393;29;20401;-92
2024/02/23 15:07:46;;;;;;;3.13;2.30;;;;;;;;;;4885733;29;20083;-91
2024/02/23 15:10:13;;;;;;;5.38;1.38;;;;;;;;;;4885840;29;20400;-92
2024/02/23 15:12:41;;;;;;;1.77;0.82;;;;;;;;;;4885024;29;20122;-90
